< < Back
Terminal Aerodrome Forecast


Current Version              Previous Versions:   1  2  3  4  5  6  7  8  9  

Terminal Aerodrome Forecast

255
FTUS42 KTAE 270500
TAFDHN
TAF
KDHN 270520Z 2706/2806 05005KT P6SM SCT060=



Latest METAR

855
SAUS70 KWBC 280700 RRI
MTRDHN
METAR KDHN 280653Z AUTO 00000KT 10SM CLR 19/17 A3004 RMK AO2 SLP167
T01890167


USA.gov is the U.S. government's official web portal to all federal, state and local government web resources and services.